General Aviation Weather

Text Reports

Enter one or more of the following location identifiers separated by a space:

Zip Code, Four-Character ICAO or Three-Character IATA airport codes.

METAR - Aviation Routine Weather Report
KCDH - Camden, Arkansas
Updated at 7:35 AM GMT on August 02, 2014 (2:35 AM CDT):
METAR KCDH 020735Z AUTO 00000KT 5SM BR BKN048 BKN060 OVC070 20/19 A3001 RMK AO2
TAF - Terminal Area Forecast
KCDH - Camden, Arkansas
Updated at 7:35 AM GMT on August 02, 2014 (2:35 AM CDT):
No TAF is currently available for this location.
Decoded:
No decoded TAF is available.
PIREP - Pilot Weather Report
KCDH - Camden, Arkansas
Updated at 7:35 AM GMT on August 02, 2014 (2:35 AM CDT):
No PIREP is currently available for this location.
AIRMET - Airmens Meteorological Information
KCDH - Camden, Arkansas
Updated at 7:35 AM GMT on August 02, 2014 (2:35 AM CDT):
No AIRMET is currently available for this location.
SIGMET - Significant Meteorological Information
KCDH - Camden, Arkansas
Updated at 7:35 AM GMT on August 02, 2014 (2:35 AM CDT):
No SIGMET is currently available for this location.
NOTAM - Notice to Airmen
KCDH - Camden, Arkansas
Updated at 7:35 AM GMT on August 02, 2014 (2:35 AM CDT):
No NOTAM is currently available for this location.
Forecast Area
KCDH - Camden, Arkansas
Updated at 7:35 AM GMT on August 02, 2014 (2:35 AM CDT):
No NOTAM is currently available for this location.
Aviation Weather Maps